Time;durP1;ratioP1;P1;durP2;ratioP2;P2;SDS_P1;SDS_P2;PMS_P1;PMS_P2;Temp;Humidity;BMP_temperature;BMP_pressure;BME280_temperature;BME280_humidity;BME280_pressure;Samples;Min_cycle;Max_cycle;Signal;HPM_P1;HPM_P2
2022/09/23 00:00:39;;;;;;;6.68;4.13;;;13.20;99.90;;;;;;5096055;28;20056;-81
2022/09/23 00:03:05;;;;;;;6.50;3.78;;;13.40;99.90;;;;;;5095902;28;20519;-81
2022/09/23 00:05:31;;;;;;;6.43;4.18;;;13.30;99.90;;;;;;5095973;28;20032;-81
2022/09/23 00:07:57;;;;;;;5.63;4.50;;;13.30;99.90;;;;;;5095884;28;20112;-81
2022/09/23 00:10:26;;;;;;;7.25;3.92;;;13.40;99.90;;;;;;5109504;28;20483;-80
2022/09/23 00:12:53;;;;;;;4.40;3.97;;;13.30;99.90;;;;;;5115857;28;20024;-81
2022/09/23 00:15:19;;;;;;;6.13;4.22;;;13.30;99.90;;;;;;5116030;28;20033;-81
2022/09/23 00:17:46;;;;;;;6.70;4.30;;;13.40;99.90;;;;;;5116206;28;20396;-81
2022/09/23 00:20:13;;;;;;;7.80;4.25;;;13.60;99.90;;;;;;5115989;28;20043;-81
2022/09/23 00:22:39;;;;;;;6.57;4.38;;;13.60;99.90;;;;;;5116043;28;20067;-81
2022/09/23 00:25:06;;;;;;;5.07;3.92;;;13.30;99.90;;;;;;5115824;28;20440;-80
2022/09/23 00:27:32;;;;;;;5.30;3.90;;;13.20;99.90;;;;;;5115657;28;20016;-81
2022/09/23 00:29:59;;;;;;;6.13;4.00;;;13.20;99.90;;;;;;5112496;28;20028;-81
2022/09/23 00:32:25;;;;;;;5.85;4.13;;;13.30;99.90;;;;;;5095000;28;20461;-81
2022/09/23 00:34:51;;;;;;;5.57;4.40;;;13.40;99.90;;;;;;5095289;28;20043;-81
2022/09/23 00:37:17;;;;;;;5.65;4.38;;;13.30;99.90;;;;;;5095355;28;20101;-81
2022/09/23 00:39:44;;;;;;;9.48;4.28;;;13.30;99.90;;;;;;5094905;28;20031;-81
2022/09/23 00:42:19;;;;;;;6.13;4.43;;;13.60;99.90;;;;;;5095195;28;20103;-81
2022/09/23 00:44:47;;;;;;;5.03;4.15;;;13.20;99.90;;;;;;5095148;28;20032;-81
2022/09/23 00:47:46;;;;;;;5.32;4.30;;;13.10;99.90;;;;;;5095005;28;20515;-81
2022/09/23 00:50:22;;;;;;;7.30;4.47;;;13.00;99.90;;;;;;5094665;28;20028;-81
2022/09/23 00:52:49;;;;;;;6.22;4.18;;;13.20;99.90;;;;;;5095100;28;20044;-81
2022/09/23 00:55:25;;;;;;;4.97;4.28;;;13.10;99.90;;;;;;5093968;28;20032;-81
2022/09/23 00:57:56;;;;;;;5.32;4.30;;;12.80;99.90;;;;;;5094844;28;20035;-81
2022/09/23 01:00:23;;;;;;;5.65;4.35;;;12.60;99.90;;;;;;5094832;28;20047;-81
2022/09/23 01:02:48;;;;;;;4.78;4.25;;;12.60;99.90;;;;;;5095051;28;20097;-81
2022/09/23 01:05:16;;;;;;;5.90;4.13;;;12.60;99.90;;;;;;5094758;28;20495;-81
2022/09/23 01:07:42;;;;;;;5.45;4.40;;;12.80;99.90;;;;;;5094540;28;20016;-81
2022/09/23 01:10:09;;;;;;;8.18;5.20;;;12.60;99.90;;;;;;5094396;28;20505;-80
2022/09/23 01:12:59;;;;;;;5.47;4.22;;;12.50;99.90;;;;;;5094519;28;20146;-80
2022/09/23 01:15:34;;;;;;;5.60;4.47;;;12.60;99.90;;;;;;5094493;28;20050;-81
2022/09/23 01:18:27;;;;;;;7.50;4.57;;;12.70;99.90;;;;;;5094673;28;20050;-81
2022/09/23 01:20:53;;;;;;;6.72;4.50;;;12.60;99.90;;;;;;5094277;28;20062;-81
2022/09/23 01:23:56;;;;;;;8.38;4.65;;;12.70;99.90;;;;;;5094119;28;20028;-82
2022/09/23 01:27:01;;;;;;;8.73;5.20;;;12.60;99.90;;;;;;5094257;28;20531;-82
2022/09/23 01:29:45;;;;;;;7.18;4.20;;;12.50;99.90;;;;;;5094484;28;20024;-81
2022/09/23 01:32:30;;;;;;;5.13;4.63;;;12.60;99.90;;;;;;5073785;28;20597;-81
2022/09/23 01:34:59;;;;;;;6.47;4.80;;;12.50;99.90;;;;;;5073807;28;20051;-80
2022/09/23 01:37:36;;;;;;;5.60;4.43;;;12.70;99.90;;;;;;5074031;28;20016;-81
2022/09/23 01:40:19;;;;;;;5.25;4.13;;;12.50;99.90;;;;;;5073815;28;20370;-81
2022/09/23 01:42:57;;;;;;;5.43;4.43;;;12.30;99.90;;;;;;5073762;28;20024;-81
2022/09/23 01:45:34;;;;;;;4.85;3.80;;;12.40;99.90;;;;;;5073784;28;20036;-81
2022/09/23 01:48:14;;;;;;;6.35;4.10;;;12.40;99.90;;;;;;5073724;28;20155;-81
2022/09/23 01:50:57;;;;;;;4.90;3.67;;;12.20;99.90;;;;;;5073540;28;20718;-81
2022/09/23 01:53:38;;;;;;;4.57;4.18;;;12.20;99.90;;;;;;5073425;28;20025;-81
2022/09/23 01:56:19;;;;;;;5.03;3.90;;;12.30;99.90;;;;;;5073509;28;20033;-81
2022/09/23 01:58:55;;;;;;;5.13;3.80;;;12.20;99.90;;;;;;5073582;28;20362;-81
2022/09/23 02:01:39;;;;;;;6.60;4.13;;;12.30;99.90;;;;;;5073506;28;20028;-81
2022/09/23 02:04:10;;;;;;;5.57;3.80;;;12.40;99.90;;;;;;5073062;28;20020;-81
2022/09/23 02:06:42;;;;;;;5.13;3.90;;;12.30;99.90;;;;;;5072802;28;20033;-80
2022/09/23 02:09:13;;;;;;;4.20;3.45;;;12.10;99.90;;;;;;5079696;28;20027;-81
2022/09/23 02:11:42;;;;;;;4.60;3.83;;;12.30;99.90;;;;;;5113677;28;20019;-81
2022/09/23 02:14:30;;;;;;;5.90;3.80;;;12.20;99.90;;;;;;5113883;28;20027;-81
2022/09/23 02:17:00;;;;;;;6.22;3.88;;;12.10;99.90;;;;;;5113757;28;20149;-81
2022/09/23 02:19:29;;;;;;;5.53;4.05;;;12.00;99.90;;;;;;5113958;28;20020;-81
2022/09/23 02:22:03;;;;;;;4.68;3.58;;;12.40;99.90;;;;;;5113089;28;20124;-81
2022/09/23 02:24:33;;;;;;;4.43;3.50;;;12.20;99.90;;;;;;5113645;28;20042;-81
2022/09/23 02:27:14;;;;;;;5.70;3.58;;;12.10;99.90;;;;;;5113546;28;20023;-81
2022/09/23 02:30:08;;;;;;;4.47;3.53;;;12.20;99.90;;;;;;5112578;28;20027;-81
2022/09/23 02:32:54;;;;;;;4.07;3.67;;;12.10;99.90;;;;;;5090171;28;20036;-81
2022/09/23 02:35:48;;;;;;;4.68;3.90;;;12.00;99.90;;;;;;5092991;28;20043;-81
2022/09/23 02:38:44;;;;;;;4.45;3.80;;;12.00;99.90;;;;;;5085376;28;20035;-81
2022/09/23 02:41:16;;;;;;;6.15;3.75;;;12.00;99.90;;;;;;5093011;28;20058;-81
2022/09/23 02:43:51;;;;;;;5.15;3.72;;;11.90;99.90;;;;;;5093054;28;20593;-81
2022/09/23 02:46:17;;;;;;;5.60;3.70;;;11.80;99.90;;;;;;5092825;28;20032;-81
2022/09/23 02:48:54;;;;;;;5.07;3.72;;;11.80;99.90;;;;;;5075109;28;20027;-81
2022/09/23 02:51:20;;;;;;;5.30;3.80;;;11.80;99.90;;;;;;5092607;28;20517;-81
2022/09/23 02:53:46;;;;;;;4.95;3.80;;;11.70;99.90;;;;;;5092799;28;20020;-81
2022/09/23 02:56:20;;;;;;;4.07;3.53;;;11.80;99.90;;;;;;5092816;28;20507;-81
2022/09/23 02:58:48;;;;;;;5.75;4.03;;;12.40;99.90;;;;;;5092872;28;20020;-81
2022/09/23 03:01:20;;;;;;;4.88;3.50;;;11.90;99.90;;;;;;5092853;28;20024;-81
2022/09/23 03:03:53;;;;;;;6.78;4.03;;;12.10;99.90;;;;;;5092719;28;20028;-81
2022/09/23 03:06:44;;;;;;;5.15;4.20;;;12.10;99.90;;;;;;5092345;28;20515;-81
2022/09/23 03:09:26;;;;;;;8.23;4.53;;;12.10;99.90;;;;;;5096092;28;20047;-81
2022/09/23 03:12:04;;;;;;;4.85;4.22;;;12.20;99.90;;;;;;5112977;28;20130;-81
2022/09/23 03:14:48;;;;;;;5.75;4.25;;;12.40;99.90;;;;;;5113100;28;20375;-81
2022/09/23 03:17:26;;;;;;;6.22;4.32;;;12.20;99.90;;;;;;5112790;28;20024;-81
2022/09/23 03:20:05;;;;;;;5.00;4.20;;;12.30;99.90;;;;;;5114997;28;20440;-81
2022/09/23 03:22:38;;;;;;;4.55;4.15;;;12.30;99.90;;;;;;5117260;28;20115;-81
2022/09/23 03:25:08;;;;;;;7.05;4.57;;;12.30;99.90;;;;;;5116933;28;20088;-81
2022/09/23 03:27:38;;;;;;;4.93;4.05;;;12.30;99.90;;;;;;5116999;28;20020;-80
2022/09/23 03:30:05;;;;;;;5.30;4.28;;;12.10;99.90;;;;;;5112705;28;20027;-81
2022/09/23 03:32:33;;;;;;;5.13;4.05;;;12.10;99.90;;;;;;5096381;28;20024;-80
2022/09/23 03:35:00;;;;;;;6.53;4.25;;;12.00;99.90;;;;;;5096288;28;20051;-81
2022/09/23 03:37:33;;;;;;;5.15;4.38;;;12.00;99.90;;;;;;5096590;28;20058;-81
2022/09/23 03:40:13;;;;;;;6.68;4.90;;;12.10;99.90;;;;;;5096244;28;20111;-81
2022/09/23 03:42:41;;;;;;;5.60;4.45;;;11.90;99.90;;;;;;5096479;28;20085;-80
2022/09/23 03:45:11;;;;;;;6.22;4.55;;;12.00;99.90;;;;;;5096170;28;20047;-81
2022/09/23 03:47:38;;;;;;;5.90;4.70;;;12.00;99.90;;;;;;5096370;28;20020;-81
2022/09/23 03:50:04;;;;;;;5.78;4.53;;;12.10;99.90;;;;;;5095999;28;20487;-81
2022/09/23 03:52:30;;;;;;;4.40;4.00;;;12.10;99.90;;;;;;5096216;28;20026;-81
2022/09/23 03:54:55;;;;;;;5.28;4.78;;;12.10;99.90;;;;;;5096129;28;20020;-81
2022/09/23 03:57:21;;;;;;;7.57;4.35;;;12.10;99.90;;;;;;5096140;28;20028;-81
2022/09/23 03:59:52;;;;;;;7.72;4.55;;;12.50;99.90;;;;;;5095851;28;20020;-81
2022/09/23 04:02:19;;;;;;;5.38;4.88;;;12.20;99.90;;;;;;5096005;28;20583;-81
2022/09/23 04:04:45;;;;;;;5.20;4.70;;;12.10;99.90;;;;;;5095598;28;20039;-81
2022/09/23 04:07:11;;;;;;;5.72;4.47;;;12.00;99.90;;;;;;5096044;28;20024;-81
2022/09/23 04:09:38;;;;;;;6.03;4.68;;;12.00;99.90;;;;;;5103270;28;20041;-81
2022/09/23 04:12:04;;;;;;;4.97;4.57;;;12.00;99.90;;;;;;5116296;28;20024;-80
2022/09/23 04:14:30;;;;;;;5.35;4.43;;;12.10;99.90;;;;;;5116169;28;20019;-81
2022/09/23 04:16:56;;;;;;;6.00;4.25;;;12.20;99.90;;;;;;5116096;28;20131;-80
2022/09/23 04:19:21;;;;;;;7.13;4.70;;;12.20;99.90;;;;;;5115890;28;20023;-80
2022/09/23 04:21:47;;;;;;;5.28;4.47;;;12.20;99.90;;;;;;5116020;28;20020;-80
2022/09/23 04:24:14;;;;;;;6.63;4.55;;;12.30;99.90;;;;;;5115879;28;20391;-81
2022/09/23 04:26:40;;;;;;;6.28;4.32;;;12.20;99.90;;;;;;5115958;28;20038;-81
2022/09/23 04:29:06;;;;;;;7.28;4.85;;;12.10;99.90;;;;;;5115756;28;20023;-81
2022/09/23 04:31:33;;;;;;;5.30;4.45;;;12.20;99.90;;;;;;5098808;28;20041;-81
2022/09/23 04:33:59;;;;;;;5.80;4.13;;;12.30;99.90;;;;;;5094983;28;20076;-81
2022/09/23 04:36:25;;;;;;;6.22;4.20;;;12.50;99.90;;;;;;5077242;28;20028;-80
2022/09/23 04:38:51;;;;;;;10.93;4.82;;;12.50;99.90;;;;;;5077118;28;20032;-81
2022/09/23 04:41:17;;;;;;;7.65;4.53;;;12.20;99.90;;;;;;5095003;28;20024;-81
2022/09/23 04:43:43;;;;;;;5.75;4.60;;;12.20;99.90;;;;;;5095215;28;20520;-81
2022/09/23 04:46:11;;;;;;;4.70;3.97;;;12.20;99.90;;;;;;5094704;28;20123;-81
2022/09/23 04:48:38;;;;;;;9.30;4.60;;;12.30;99.90;;;;;;5095317;28;20027;-81
2022/09/23 04:51:19;;;;;;;8.32;4.38;;;12.30;99.90;;;;;;5094936;28;20047;-81
2022/09/23 04:53:46;;;;;;;6.57;4.35;;;12.30;99.90;;;;;;5095146;28;20047;-81
2022/09/23 04:56:18;;;;;;;5.63;4.25;;;12.20;99.90;;;;;;5094973;28;20065;-81
2022/09/23 04:58:44;;;;;;;5.88;4.68;;;12.30;99.90;;;;;;5095012;28;20024;-81
2022/09/23 05:01:28;;;;;;;6.85;4.72;;;12.20;99.90;;;;;;5094161;28;20384;-81
2022/09/23 05:04:01;;;;;;;7.47;4.43;;;12.40;99.90;;;;;;5094541;28;20024;-81
2022/09/23 05:06:28;;;;;;;7.50;4.15;;;12.50;99.90;;;;;;5094749;28;20059;-81
2022/09/23 05:08:55;;;;;;;6.80;4.63;;;12.60;99.90;;;;;;5094416;28;20024;-81
2022/09/23 05:11:22;;;;;;;12.65;5.25;;;12.40;99.90;;;;;;5094706;28;20030;-81
2022/09/23 05:13:50;;;;;;;8.20;4.43;;;12.50;99.90;;;;;;5094589;28;20054;-81
2022/09/23 05:16:17;;;;;;;9.23;4.53;;;12.60;99.90;;;;;;5094171;28;20032;-81
2022/09/23 05:18:44;;;;;;;5.82;4.25;;;12.40;99.90;;;;;;5094750;28;20114;-81
2022/09/23 05:21:12;;;;;;;6.97;4.60;;;12.70;99.90;;;;;;5094458;28;20024;-81
2022/09/23 05:23:39;;;;;;;9.65;4.35;;;12.40;99.90;;;;;;5094061;28;20534;-81
2022/09/23 05:26:08;;;;;;;8.15;5.25;;;12.50;99.90;;;;;;5094162;28;20419;-81
2022/09/23 05:28:36;;;;;;;5.82;4.70;;;12.60;99.90;;;;;;5094306;28;20012;-81
2022/09/23 05:31:02;;;;;;;12.55;4.90;;;12.40;99.90;;;;;;5093668;28;20032;-81
2022/09/23 05:33:28;;;;;;;8.13;5.18;;;12.30;99.90;;;;;;5094082;28;20043;-81
2022/09/23 05:35:54;;;;;;;8.10;4.25;;;12.40;99.90;;;;;;5094219;28;20395;-81
2022/09/23 05:38:20;;;;;;;11.98;5.07;;;12.30;99.90;;;;;;5094067;28;20016;-81
2022/09/23 05:40:45;;;;;;;8.23;5.00;;;12.20;99.90;;;;;;5094077;28;20028;-81
2022/09/23 05:43:11;;;;;;;8.65;5.32;;;12.30;99.90;;;;;;5093416;28;20047;-81
2022/09/23 05:45:37;;;;;;;7.63;5.22;;;12.20;99.90;;;;;;5093693;28;20123;-81
2022/09/23 05:48:02;;;;;;;9.10;5.25;;;12.10;99.90;;;;;;5094017;28;20095;-81
2022/09/23 05:50:28;;;;;;;10.73;5.40;;;12.10;99.90;;;;;;5093650;28;20392;-81
2022/09/23 05:52:54;;;;;;;6.95;4.80;;;12.20;99.90;;;;;;5093833;28;20484;-81
2022/09/23 05:55:19;;;;;;;8.15;5.25;;;12.50;99.90;;;;;;5093811;28;20035;-81
2022/09/23 05:57:45;;;;;;;8.15;4.65;;;12.40;99.90;;;;;;5093764;28;20392;-81
2022/09/23 06:00:11;;;;;;;6.78;5.45;;;12.50;99.90;;;;;;5093440;28;20052;-81
2022/09/23 06:02:37;;;;;;;12.48;5.35;;;12.50;99.90;;;;;;5093722;28;20024;-81
2022/09/23 06:05:02;;;;;;;7.70;5.10;;;12.70;99.90;;;;;;5075216;28;20472;-81
2022/09/23 06:07:30;;;;;;;9.85;4.95;;;12.60;99.90;;;;;;5093426;28;20016;-81
2022/09/23 06:09:55;;;;;;;7.10;4.95;;;12.80;99.90;;;;;;5093202;28;20028;-81
2022/09/23 06:12:21;;;;;;;7.75;5.30;;;12.90;99.90;;;;;;5093441;28;20093;-81
2022/09/23 06:14:47;;;;;;;8.15;5.20;;;13.00;99.90;;;;;;5092860;28;20031;-81
2022/09/23 06:17:13;;;;;;;9.00;5.40;;;13.20;99.90;;;;;;5093283;28;20150;-81
2022/09/23 06:19:38;;;;;;;8.20;5.55;;;13.30;99.90;;;;;;5093286;28;20103;-81
2022/09/23 06:22:04;;;;;;;8.63;5.55;;;13.60;99.90;;;;;;5093193;28;20023;-81
2022/09/23 06:24:29;;;;;;;10.20;5.30;;;13.80;99.90;;;;;;5092823;28;20463;-80
2022/09/23 06:26:55;;;;;;;7.55;4.90;;;14.20;99.90;;;;;;5093149;28;20541;-81
2022/09/23 06:29:21;;;;;;;8.15;4.90;;;14.20;99.90;;;;;;5092816;28;20054;-81
2022/09/23 06:31:48;;;;;;;6.80;5.18;;;14.30;99.90;;;;;;5092800;28;20046;-81
2022/09/23 06:34:13;;;;;;;7.80;5.10;;;14.20;99.90;;;;;;5092909;28;20048;-81
2022/09/23 06:36:43;;;;;;;8.18;5.10;;;14.30;99.90;;;;;;5093219;28;20020;-81
2022/09/23 06:39:08;;;;;;;8.27;4.90;;;14.40;99.90;;;;;;5093140;28;20482;-81
2022/09/23 06:41:34;;;;;;;10.73;5.35;;;14.70;99.90;;;;;;5092822;28;20065;-82
2022/09/23 06:44:00;;;;;;;8.20;5.95;;;14.60;99.90;;;;;;5092680;28;20024;-81
2022/09/23 06:46:26;;;;;;;11.05;6.28;;;14.50;99.90;;;;;;5092874;28;20576;-81
2022/09/23 06:48:52;;;;;;;11.00;5.65;;;14.70;99.90;;;;;;5092919;28;20477;-81
2022/09/23 06:51:18;;;;;;;6.13;5.30;;;14.80;99.90;;;;;;5092982;28;20070;-80
2022/09/23 06:53:49;;;;;;;10.52;5.68;;;14.90;99.90;;;;;;5091810;28;20391;-81
2022/09/23 06:56:16;;;;;;;9.15;5.15;;;15.00;99.90;;;;;;5092838;28;20020;-81
2022/09/23 06:58:42;;;;;;;10.25;5.75;;;15.20;99.90;;;;;;5092366;28;20082;-81
2022/09/23 07:01:11;;;;;;;8.65;5.70;;;15.30;99.90;;;;;;5092782;28;20020;-81
2022/09/23 07:03:37;;;;;;;8.23;5.75;;;15.40;99.90;;;;;;5092779;28;20051;-81
2022/09/23 07:06:04;;;;;;;10.90;6.43;;;15.50;99.90;;;;;;5092540;28;20061;-81
2022/09/23 07:08:32;;;;;;;8.75;5.68;;;15.60;99.90;;;;;;5092673;28;20529;-81
2022/09/23 07:11:00;;;;;;;9.55;5.70;;;15.70;99.90;;;;;;5092424;28;20020;-81
2022/09/23 07:13:26;;;;;;;8.80;5.63;;;15.90;99.90;;;;;;5092431;28;20077;-81
2022/09/23 07:15:53;;;;;;;8.90;5.13;;;16.00;99.90;;;;;;5092618;28;20035;-81
2022/09/23 07:18:22;;;;;;;6.43;4.53;;;16.20;99.90;;;;;;5092762;28;20031;-81
2022/09/23 07:20:48;;;;;;;7.32;5.00;;;16.50;99.90;;;;;;5092633;28;20016;-81
2022/09/23 07:23:16;;;;;;;6.20;4.18;;;16.50;99.90;;;;;;5092493;28;20514;-81
2022/09/23 07:25:42;;;;;;;10.07;4.82;;;16.70;99.90;;;;;;5074408;28;20119;-81
2022/09/23 07:28:08;;;;;;;8.05;4.53;;;16.90;99.90;;;;;;5092469;28;20107;-81
2022/09/23 07:30:40;;;;;;;7.18;4.20;;;16.90;99.90;;;;;;5092252;28;20020;-81
2022/09/23 07:33:06;;;;;;;10.18;4.10;;;17.10;99.90;;;;;;5092361;28;20067;-81
2022/09/23 07:35:32;;;;;;;5.60;4.30;;;17.30;99.90;;;;;;5092506;28;20059;-81
2022/09/23 07:37:59;;;;;;;6.75;4.38;;;17.50;99.90;;;;;;5092420;28;20039;-81
2022/09/23 07:40:25;;;;;;;9.07;4.40;;;17.70;99.90;;;;;;5091927;28;20039;-81
2022/09/23 07:42:51;;;;;;;7.70;4.65;;;17.80;99.90;;;;;;5074227;28;20028;-81
2022/09/23 07:45:17;;;;;;;5.93;4.20;;;17.80;99.90;;;;;;5092255;28;20040;-81
2022/09/23 07:47:42;;;;;;;7.28;4.40;;;18.10;99.90;;;;;;5074183;28;20467;-81
2022/09/23 07:50:11;;;;;;;7.65;4.20;;;18.10;99.90;;;;;;5092313;28;20057;-81
2022/09/23 07:52:38;;;;;;;9.80;4.65;;;18.20;99.90;;;;;;5092280;28;20024;-81
2022/09/23 07:55:05;;;;;;;8.52;3.92;;;18.50;99.90;;;;;;5091903;28;20046;-81
2022/09/23 07:57:31;;;;;;;7.47;4.53;;;18.90;99.90;;;;;;5092173;28;20590;-81
2022/09/23 07:59:57;;;;;;;5.63;3.80;;;19.10;99.90;;;;;;5092277;28;20052;-81
2022/09/23 08:02:23;;;;;;;8.95;4.28;;;19.20;99.90;;;;;;5092131;28;20378;-81
2022/09/23 08:04:48;;;;;;;4.95;3.65;;;19.30;99.90;;;;;;5092713;28;20052;-81
2022/09/23 08:07:15;;;;;;;6.30;4.20;;;19.50;99.90;;;;;;5095977;28;20488;-81
2022/09/23 08:09:42;;;;;;;7.80;3.97;;;19.50;99.90;;;;;;5095418;28;20027;-81
2022/09/23 08:12:14;;;;;;;8.43;3.95;;;20.00;99.90;;;;;;5095846;28;20081;-81
2022/09/23 08:14:40;;;;;;;6.93;4.43;;;19.60;99.90;;;;;;5095920;28;20013;-81
2022/09/23 08:17:07;;;;;;;7.72;4.07;;;19.70;99.90;;;;;;5095734;28;20396;-81
2022/09/23 08:19:32;;;;;;;6.78;3.78;;;19.60;99.90;;;;;;5095649;28;20028;-81
2022/09/23 08:21:58;;;;;;;6.80;3.80;;;19.70;99.90;;;;;;5095752;28;20035;-81
2022/09/23 08:24:25;;;;;;;8.05;4.25;;;19.70;99.90;;;;;;5095177;28;20111;-81
2022/09/23 08:26:52;;;;;;;7.63;3.53;;;20.00;99.90;;;;;;5095613;28;20040;-81
2022/09/23 08:29:22;;;;;;;5.07;2.88;;;19.60;99.90;;;;;;5095646;28;20020;-81
2022/09/23 08:31:48;;;;;;;8.52;3.10;;;19.60;99.90;;;;;;5095349;28;20144;-81
2022/09/23 08:34:16;;;;;;;6.78;3.85;;;20.00;99.90;;;;;;5095394;28;20089;-81
2022/09/23 08:36:41;;;;;;;5.50;3.45;;;20.50;99.90;;;;;;5095349;28;20024;-81
2022/09/23 08:39:11;;;;;;;3.95;2.38;;;20.30;99.90;;;;;;5095124;28;20114;-81
2022/09/23 08:42:00;;;;;;;7.10;3.88;;;19.70;99.90;;;;;;5095141;28;20032;-81
2022/09/23 08:44:36;;;;;;;5.47;3.10;;;20.10;99.90;;;;;;5095214;28;20374;-81
2022/09/23 08:47:22;;;;;;;6.15;2.90;;;20.20;99.90;;;;;;5095143;28;20043;-81
2022/09/23 08:50:06;;;;;;;5.72;3.22;;;20.60;99.90;;;;;;5095128;28;20484;-81
2022/09/23 08:52:57;;;;;;;4.25;2.70;;;20.80;99.90;;;;;;5094902;28;20028;-81
2022/09/23 08:55:34;;;;;;;5.95;3.13;;;21.90;99.90;;;;;;5012899;28;20038;-81
2022/09/23 08:58:36;;;;;;;3.60;2.00;;;25.20;99.90;;;;;;5012917;28;20042;-81
2022/09/23 09:01:12;;;;;;;5.30;2.75;;;25.00;99.90;;;;;;5012751;28;20060;-82
2022/09/23 09:03:50;;;;;;;6.38;2.85;;;25.50;99.90;;;;;;5012722;28;20026;-81
2022/09/23 09:07:03;;;;;;;6.15;3.00;;;26.60;99.90;;;;;;5012600;28;20388;-81
2022/09/23 09:09:44;;;;;;;4.28;3.05;;;30.80;99.90;;;;;;4973215;28;20438;-81
2022/09/23 09:12:21;;;;;;;5.82;2.83;;;29.70;99.90;;;;;;4973593;28;20131;-81
2022/09/23 09:14:56;;;;;;;5.38;3.03;;;27.80;99.90;;;;;;4973632;28;20033;-82
2022/09/23 09:17:23;;;;;;;5.32;2.92;;;28.90;99.90;;;;;;4972522;28;20030;-82
2022/09/23 09:19:54;;;;;;;5.72;2.58;;;29.40;99.90;;;;;;4973391;28;20038;-82
2022/09/23 09:22:52;;;;;;;3.90;2.75;;;29.80;99.90;;;;;;4973082;28;20029;-82
2022/09/23 09:25:38;;;;;;;10.20;2.88;;;29.50;99.90;;;;;;4966622;28;20062;-81
2022/09/23 09:28:16;;;;;;;3.47;2.50;;;29.30;99.90;;;;;;4973403;28;20023;-81
2022/09/23 09:30:43;;;;;;;8.80;3.65;;;28.80;99.90;;;;;;4973034;28;20039;-82
2022/09/23 09:33:17;;;;;;;6.25;2.65;;;30.00;99.90;;;;;;4988773;28;20046;-81
2022/09/23 09:35:49;;;;;;;6.40;2.90;;;30.10;99.90;;;;;;4992599;28;20030;-82
2022/09/23 09:38:15;;;;;;;4.70;2.50;;;30.80;99.90;;;;;;4992122;28;20030;-81
2022/09/23 09:40:45;;;;;;;4.88;2.60;;;31.70;99.90;;;;;;4992517;28;20030;-82
2022/09/23 09:43:20;;;;;;;5.03;2.60;;;30.70;99.90;;;;;;5030414;28;20037;-82
2022/09/23 09:45:52;;;;;;;7.07;2.63;;;32.10;99.90;;;;;;5073755;28;20457;-82
2022/09/23 09:48:31;;;;;;;4.85;2.50;;;31.50;99.90;;;;;;5073904;28;20017;-81
2022/09/23 09:51:24;;;;;;;6.15;2.22;;;32.20;99.90;;;;;;5073320;28;20036;-82
2022/09/23 09:53:51;;;;;;;3.83;2.40;;;33.00;99.90;;;;;;5073667;28;20028;-82
2022/09/23 09:56:28;;;;;;;3.83;2.08;;;32.20;99.90;;;;;;5073537;28;20032;-82
2022/09/23 09:59:07;;;;;;;4.75;2.42;;;30.60;99.90;;;;;;5073552;28;20058;-82
2022/09/23 10:01:34;;;;;;;3.80;2.40;;;32.40;99.90;;;;;;5073473;28;20042;-82
2022/09/23 10:04:05;;;;;;;2.42;2.10;;;32.00;99.90;;;;;;5073438;28;20484;-82
2022/09/23 10:06:33;;;;;;;6.18;2.15;;;31.30;99.90;;;;;;5072835;28;20040;-81
2022/09/23 10:09:18;;;;;;;3.50;2.25;;;34.90;99.90;;;;;;5074983;28;20552;-82
2022/09/23 10:12:08;;;;;;;4.18;2.45;;;33.40;99.90;;;;;;5093433;28;20114;-81
2022/09/23 10:14:35;;;;;;;6.80;2.80;;;32.50;99.90;;;;;;5093574;28;20039;-82
2022/09/23 10:17:06;;;;;;;5.57;2.13;;;33.70;99.90;;;;;;5093510;28;20032;-82
2022/09/23 10:19:35;;;;;;;4.47;2.40;;;33.90;99.90;;;;;;5093345;28;20434;-82
2022/09/23 10:22:15;;;;;;;3.58;2.40;;;32.40;99.90;;;;;;5093122;28;20049;-81
2022/09/23 10:24:47;;;;;;;6.22;2.30;;;31.30;99.90;;;;;;5093234;28;20024;-82
2022/09/23 10:27:13;;;;;;;4.40;2.17;;;33.90;99.90;;;;;;5093296;28;20391;-81
2022/09/23 10:29:50;;;;;;;4.07;2.38;;;32.90;99.90;;;;;;5092780;28;20103;-82
2022/09/23 10:32:26;;;;;;;3.88;2.15;;;31.60;99.90;;;;;;5093261;28;20040;-82
2022/09/23 10:35:07;;;;;;;2.67;2.30;;;31.10;99.90;;;;;;5074336;28;20408;-82
2022/09/23 10:37:35;;;;;;;3.42;1.95;;;30.60;99.90;;;;;;5093170;28;20031;-82
2022/09/23 10:46:41;;;;;;;3.05;2.05;;;33.40;99.90;;;;;;5093072;28;20519;-82
2022/09/23 10:49:26;;;;;;;4.28;2.30;;;33.60;99.90;;;;;;5076960;28;20050;-79
2022/09/23 10:52:10;;;;;;;3.67;2.22;;;32.60;99.90;;;;;;5093002;28;20486;-79
2022/09/23 10:54:42;;;;;;;3.95;2.30;;;35.40;99.90;;;;;;5092772;28;20488;-79
2022/09/23 10:57:44;;;;;;;4.20;2.20;;;34.60;99.90;;;;;;5092931;28;20024;-82
2022/09/23 11:00:21;;;;;;;2.72;2.15;;;31.70;99.90;;;;;;5092854;28;20388;-82
2022/09/23 11:03:31;;;;;;;4.63;2.60;;;31.10;99.90;;;;;;5092817;28;20028;-82
2022/09/23 11:06:02;;;;;;;5.78;2.15;;;33.10;99.90;;;;;;5092566;28;20043;-82
2022/09/23 11:09:07;;;;;;;4.85;2.55;;;30.90;99.90;;;;;;5074594;28;20388;-82
2022/09/23 11:11:51;;;;;;;3.88;2.50;;;31.50;99.90;;;;;;5089148;28;20036;-82
2022/09/23 11:14:25;;;;;;;7.78;2.80;;;30.90;99.90;;;;;;5092578;28;20093;-82
2022/09/23 11:17:28;;;;;;;8.05;2.33;;;30.70;99.90;;;;;;5092637;28;20050;-82
2022/09/23 11:20:20;;;;;;;4.65;2.38;;;28.10;99.90;;;;;;5092271;28;20024;-82
2022/09/23 11:23:13;;;;;;;4.22;2.17;;;30.20;99.90;;;;;;5010472;28;20034;-82
2022/09/23 11:26:16;;;;;;;2.55;1.80;;;30.80;99.90;;;;;;5010587;28;20506;-82
2022/09/23 11:29:14;;;;;;;3.55;2.13;;;29.20;99.90;;;;;;5010533;28;20030;-82
2022/09/23 11:32:06;;;;;;;5.25;2.20;;;27.30;99.90;;;;;;5010349;28;20340;-81
2022/09/23 11:34:46;;;;;;;4.55;2.20;;;26.80;99.90;;;;;;5010197;28;20052;-82
2022/09/23 11:37:20;;;;;;;4.88;2.53;;;27.40;99.90;;;;;;5010497;28;20549;-82
2022/09/23 11:40:14;;;;;;;4.53;2.28;;;26.10;99.90;;;;;;5010761;28;20030;-82
2022/09/23 11:42:58;;;;;;;3.30;2.30;;;25.00;99.90;;;;;;5014253;28;20389;-82
2022/09/23 11:45:51;;;;;;;4.05;2.17;;;25.60;99.90;;;;;;5014346;28;20038;-81
2022/09/23 11:48:28;;;;;;;3.20;2.10;;;29.60;99.90;;;;;;5006889;28;20081;-82
2022/09/23 11:51:15;;;;;;;3.33;2.20;;;28.00;99.90;;;;;;5014101;28;20100;-82
2022/09/23 11:54:12;;;;;;;3.42;2.20;;;28.70;99.90;;;;;;5014144;28;20042;-82
2022/09/23 11:56:44;;;;;;;3.33;2.10;;;28.60;99.90;;;;;;5014178;28;20130;-82
2022/09/23 11:59:36;;;;;;;4.65;2.10;;;28.30;99.90;;;;;;5034558;28;20093;-79
2022/09/23 12:02:27;;;;;;;4.22;2.38;;;27.30;99.90;;;;;;5075500;28;20107;-80
2022/09/23 12:05:03;;;;;;;2.95;2.30;;;28.70;99.90;;;;;;5075847;28;20032;-79
2022/09/23 12:07:43;;;;;;;2.72;2.40;;;28.50;99.90;;;;;;5075602;28;20036;-79
2022/09/23 12:10:10;;;;;;;4.53;2.30;;;27.50;99.90;;;;;;5087101;28;20071;-80
2022/09/23 12:12:47;;;;;;;6.47;2.50;;;29.10;99.90;;;;;;5095990;28;20470;-80
2022/09/23 12:16:01;;;;;;;6.50;2.28;;;31.30;99.90;;;;;;5095839;28;20103;-79
2022/09/23 12:18:55;;;;;;;5.32;2.35;;;32.90;99.90;;;;;;5073576;28;20178;-79
2022/09/23 12:21:38;;;;;;;6.13;2.08;;;30.90;99.90;;;;;;5095692;28;20107;-79
2022/09/23 12:24:38;;;;;;;4.53;2.95;;;30.40;99.90;;;;;;5095665;28;20056;-80
2022/09/23 12:27:10;;;;;;;2.33;1.90;;;30.70;99.90;;;;;;4993746;28;20038;-79
2022/09/23 12:29:38;;;;;;;2.58;1.67;;;30.00;99.90;;;;;;4993703;28;20041;-80
2022/09/23 12:32:08;;;;;;;8.68;2.40;;;31.80;99.90;;;;;;4993480;28;20034;-80
2022/09/23 12:34:47;;;;;;;2.40;1.73;;;32.30;99.90;;;;;;4993486;28;20096;-79
2022/09/23 12:37:30;;;;;;;2.90;1.95;;;30.90;99.90;;;;;;4993650;28;20686;-79
2022/09/23 12:40:21;;;;;;;5.22;2.08;;;29.00;99.90;;;;;;4993612;28;20038;-80
2022/09/23 12:42:48;;;;;;;2.50;2.10;;;27.50;99.90;;;;;;4993538;28;20541;-79
2022/09/23 12:45:36;;;;;;;2.42;1.80;;;26.70;99.90;;;;;;4993256;28;20074;-81
2022/09/23 12:48:23;;;;;;;4.75;1.95;;;25.70;99.90;;;;;;4993532;28;20423;-82
2022/09/23 12:51:11;;;;;;;5.35;2.00;;;25.10;99.90;;;;;;4993344;28;20423;-82
2022/09/23 12:53:37;;;;;;;2.72;2.20;;;25.10;99.90;;;;;;4993431;28;20038;-82
2022/09/23 12:56:25;;;;;;;5.18;2.10;;;25.70;99.90;;;;;;4993170;28;20041;-80
2022/09/23 12:58:53;;;;;;;4.00;2.28;;;26.30;99.90;;;;;;4993336;28;20430;-82
2022/09/23 13:01:21;;;;;;;4.78;2.05;;;25.40;99.90;;;;;;4992938;28;20049;-82
2022/09/23 13:07:05;;;;;;;3.67;2.17;;;24.60;99.90;;;;;;5074504;28;20036;-82
2022/09/23 13:09:39;;;;;;;6.82;2.38;;;25.60;99.90;;;;;;5080749;28;20184;-82
2022/09/23 13:12:11;;;;;;;4.63;2.00;;;26.10;99.90;;;;;;5094791;28;20430;-82
2022/09/23 13:14:43;;;;;;;4.95;2.17;;;26.30;99.90;;;;;;5094411;28;20020;-81
2022/09/23 13:17:23;;;;;;;4.53;2.40;;;25.40;99.90;;;;;;5094623;28;20031;-82
2022/09/23 13:19:58;;;;;;;4.78;2.22;;;24.80;99.90;;;;;;5094692;28;20044;-82
2022/09/23 13:22:52;;;;;;;5.78;2.92;;;24.30;99.90;;;;;;5094590;28;20036;-82
2022/09/23 13:25:25;;;;;;;4.38;2.20;;;24.90;99.90;;;;;;5094523;28;20040;-81
2022/09/23 13:27:59;;;;;;;5.72;2.10;;;24.70;99.90;;;;;;5076105;28;20024;-81